KHVR/HVR METAR and TAF weather

Enter ICAO airport designator
Station Type Date Time Source
KHVR METAR 2022/01/27 23:53 UTC NOAA

KHVR 272353Z AUTO 22013KT 10SM CLR 02/M04 A3025 RMK AO2 SLP275 T00221044 10044 21017 56022


Station Type Date Time Source
KHVR Decoded METAR 2022/01/27 23:53 UTC NOAA

HAVRE CITY-COUNTY AIRPORT, MT, United States (KHVR) 48-33N 109-46W 787M
Jan 27, 2022 - 06:53 PM EST / 2022.01.27 2353 UTC
Wind: from the SW (220 degrees) at 15 MPH (13 KT):0
Visibility: 10 mile(s):0
Sky conditions: clear
Temperature: 36.0 F (2.2 C)
Dew Point: 24.1 F (-4.4 C)
Relative Humidity: 61%
Pressure (altimeter): 30.25 in. Hg (1024 hPa)
Pressure tendency: 0.06 inches (2.2 hPa) lower than three hours ago
ob: KHVR 272353Z AUTO 22013KT 10SM CLR 02/M04 A3025 RMK AO2 SLP275 T00221044 10044 21017 56022
cycle: 0

Station Type Date Time Source
KHVR TAF 2022/01/27 18:22 UTC NOAA

TAF KHVR 271720Z 2718/2818 24011KT P6SM SCT250
FM272000 23013G21KT P6SM SCT250

Example: see airport list